sensor_id;sensor_type;location;lat;lon;timestamp;P1;durP1;ratioP1;P2;durP2;ratioP2
73154;SDS011;61364;52.418;7.382;2022-12-18T00:04:35;39.14;;;37.82;;
73154;SDS011;61364;52.418;7.382;2022-12-18T00:07:01;39.37;;;38.25;;
73154;SDS011;61364;52.418;7.382;2022-12-18T00:09:27;40.02;;;38.90;;
73154;SDS011;61364;52.418;7.382;2022-12-18T00:11:53;41.44;;;40.15;;
73154;SDS011;61364;52.418;7.382;2022-12-18T00:14:18;41.57;;;40.32;;
73154;SDS011;61364;52.418;7.382;2022-12-18T00:16:44;41.47;;;40.31;;
73154;SDS011;61364;52.418;7.382;2022-12-18T00:19:10;43.00;;;41.70;;
73154;SDS011;61364;52.418;7.382;2022-12-18T00:21:40;41.91;;;40.79;;
73154;SDS011;61364;52.418;7.382;2022-12-18T00:24:06;42.76;;;41.64;;
73154;SDS011;61364;52.418;7.382;2022-12-18T00:26:32;44.08;;;42.28;;
73154;SDS011;61364;52.418;7.382;2022-12-18T00:39:07;41.44;;;40.51;;
73154;SDS011;61364;52.418;7.382;2022-12-18T00:41:33;42.15;;;41.15;;
73154;SDS011;61364;52.418;7.382;2022-12-18T00:44:18;41.82;;;41.12;;
73154;SDS011;61364;52.418;7.382;2022-12-18T00:46:44;41.02;;;40.32;;
73154;SDS011;61364;52.418;7.382;2022-12-18T00:49:16;42.64;;;42.09;;
73154;SDS011;61364;52.418;7.382;2022-12-18T00:51:43;40.62;;;39.95;;
73154;SDS011;61364;52.418;7.382;2022-12-18T00:54:08;40.11;;;39.50;;
73154;SDS011;61364;52.418;7.382;2022-12-18T00:56:37;39.81;;;39.32;;
73154;SDS011;61364;52.418;7.382;2022-12-18T00:59:03;39.52;;;38.99;;
73154;SDS011;61364;52.418;7.382;2022-12-18T01:01:29;39.63;;;39.12;;
73154;SDS011;61364;52.418;7.382;2022-12-18T01:03:58;38.44;;;37.98;;
73154;SDS011;61364;52.418;7.382;2022-12-18T01:06:24;38.88;;;38.44;;
73154;SDS011;61364;52.418;7.382;2022-12-18T01:08:50;38.97;;;38.14;;
73154;SDS011;61364;52.418;7.382;2022-12-18T01:11:16;39.09;;;38.39;;
73154;SDS011;61364;52.418;7.382;2022-12-18T01:13:43;39.04;;;38.60;;
73154;SDS011;61364;52.418;7.382;2022-12-18T01:16:14;39.14;;;38.69;;
73154;SDS011;61364;52.418;7.382;2022-12-18T01:18:41;38.74;;;38.34;;
73154;SDS011;61364;52.418;7.382;2022-12-18T01:21:10;38.43;;;37.96;;
73154;SDS011;61364;52.418;7.382;2022-12-18T01:23:38;37.73;;;37.31;;
73154;SDS011;61364;52.418;7.382;2022-12-18T01:26:07;37.90;;;37.65;;
73154;SDS011;61364;52.418;7.382;2022-12-18T01:28:34;36.87;;;36.74;;
73154;SDS011;61364;52.418;7.382;2022-12-18T01:31:19;36.81;;;36.69;;
73154;SDS011;61364;52.418;7.382;2022-12-18T01:33:48;36.44;;;36.35;;
73154;SDS011;61364;52.418;7.382;2022-12-18T01:36:17;37.95;;;37.69;;
73154;SDS011;61364;52.418;7.382;2022-12-18T01:38:44;37.13;;;36.94;;
73154;SDS011;61364;52.418;7.382;2022-12-18T01:41:12;37.16;;;37.00;;
73154;SDS011;61364;52.418;7.382;2022-12-18T01:43:56;38.39;;;37.79;;
73154;SDS011;61364;52.418;7.382;2022-12-18T01:46:26;37.87;;;37.49;;
73154;SDS011;61364;52.418;7.382;2022-12-18T01:48:53;39.87;;;39.56;;
73154;SDS011;61364;52.418;7.382;2022-12-18T01:51:22;38.97;;;38.62;;
73154;SDS011;61364;52.418;7.382;2022-12-18T01:53:48;37.74;;;37.51;;
73154;SDS011;61364;52.418;7.382;2022-12-18T01:56:15;38.91;;;38.74;;
73154;SDS011;61364;52.418;7.382;2022-12-18T02:01:21;39.67;;;39.47;;
73154;SDS011;61364;52.418;7.382;2022-12-18T02:03:49;39.44;;;39.23;;
73154;SDS011;61364;52.418;7.382;2022-12-18T02:06:20;38.22;;;37.99;;
73154;SDS011;61364;52.418;7.382;2022-12-18T02:24:48;39.31;;;39.01;;
73154;SDS011;61364;52.418;7.382;2022-12-18T02:32:35;38.55;;;38.17;;
73154;SDS011;61364;52.418;7.382;2022-12-18T02:35:06;37.95;;;37.73;;
73154;SDS011;61364;52.418;7.382;2022-12-18T02:37:34;37.77;;;37.48;;
73154;SDS011;61364;52.418;7.382;2022-12-18T02:40:03;37.56;;;37.33;;
73154;SDS011;61364;52.418;7.382;2022-12-18T02:42:29;37.09;;;36.96;;
73154;SDS011;61364;52.418;7.382;2022-12-18T02:44:57;36.94;;;36.90;;
73154;SDS011;61364;52.418;7.382;2022-12-18T02:47:24;37.96;;;37.84;;
73154;SDS011;61364;52.418;7.382;2022-12-18T02:50:07;38.51;;;38.30;;
73154;SDS011;61364;52.418;7.382;2022-12-18T02:57:33;38.86;;;38.75;;
73154;SDS011;61364;52.418;7.382;2022-12-18T03:00:04;37.97;;;37.85;;
73154;SDS011;61364;52.418;7.382;2022-12-18T03:02:44;39.09;;;38.92;;
73154;SDS011;61364;52.418;7.382;2022-12-18T03:05:18;38.67;;;38.46;;
73154;SDS011;61364;52.418;7.382;2022-12-18T03:07:51;39.34;;;38.98;;
73154;SDS011;61364;52.418;7.382;2022-12-18T03:10:24;39.51;;;39.18;;
73154;SDS011;61364;52.418;7.382;2022-12-18T03:12:53;38.34;;;38.25;;
73154;SDS011;61364;52.418;7.382;2022-12-18T03:15:33;38.04;;;37.88;;
73154;SDS011;61364;52.418;7.382;2022-12-18T03:18:03;38.85;;;38.64;;
73154;SDS011;61364;52.418;7.382;2022-12-18T03:20:31;38.76;;;38.66;;
73154;SDS011;61364;52.418;7.382;2022-12-18T03:23:00;38.93;;;38.67;;
73154;SDS011;61364;52.418;7.382;2022-12-18T03:25:29;39.22;;;38.94;;
73154;SDS011;61364;52.418;7.382;2022-12-18T03:27:58;40.15;;;40.05;;
73154;SDS011;61364;52.418;7.382;2022-12-18T03:30:26;38.99;;;38.82;;
73154;SDS011;61364;52.418;7.382;2022-12-18T03:32:58;39.41;;;39.29;;
73154;SDS011;61364;52.418;7.382;2022-12-18T03:35:30;39.08;;;39.00;;
73154;SDS011;61364;52.418;7.382;2022-12-18T03:37:58;38.74;;;38.64;;
73154;SDS011;61364;52.418;7.382;2022-12-18T03:40:26;39.14;;;39.10;;
73154;SDS011;61364;52.418;7.382;2022-12-18T03:42:58;39.06;;;39.00;;
73154;SDS011;61364;52.418;7.382;2022-12-18T03:45:33;38.68;;;38.59;;
73154;SDS011;61364;52.418;7.382;2022-12-18T03:48:14;38.60;;;38.55;;
73154;SDS011;61364;52.418;7.382;2022-12-18T03:50:59;39.89;;;39.87;;
73154;SDS011;61364;52.418;7.382;2022-12-18T03:56:02;40.40;;;40.22;;
73154;SDS011;61364;52.418;7.382;2022-12-18T03:58:30;41.90;;;41.59;;
73154;SDS011;61364;52.418;7.382;2022-12-18T04:01:00;41.07;;;41.02;;
73154;SDS011;61364;52.418;7.382;2022-12-18T04:03:28;40.68;;;40.59;;
73154;SDS011;61364;52.418;7.382;2022-12-18T04:05:57;40.32;;;40.17;;
73154;SDS011;61364;52.418;7.382;2022-12-18T04:08:26;39.75;;;39.69;;
73154;SDS011;61364;52.418;7.382;2022-12-18T04:10:52;40.99;;;40.98;;
73154;SDS011;61364;52.418;7.382;2022-12-18T04:13:21;40.66;;;40.56;;
73154;SDS011;61364;52.418;7.382;2022-12-18T04:15:47;39.73;;;39.68;;
73154;SDS011;61364;52.418;7.382;2022-12-18T04:18:13;39.72;;;39.71;;
73154;SDS011;61364;52.418;7.382;2022-12-18T04:20:38;39.24;;;39.22;;
73154;SDS011;61364;52.418;7.382;2022-12-18T04:23:04;39.83;;;39.68;;
73154;SDS011;61364;52.418;7.382;2022-12-18T04:25:29;40.67;;;40.48;;
73154;SDS011;61364;52.418;7.382;2022-12-18T04:27:55;39.90;;;39.88;;
73154;SDS011;61364;52.418;7.382;2022-12-18T04:30:21;38.86;;;38.84;;
73154;SDS011;61364;52.418;7.382;2022-12-18T04:32:47;38.93;;;38.91;;
73154;SDS011;61364;52.418;7.382;2022-12-18T04:35:13;39.40;;;39.36;;
73154;SDS011;61364;52.418;7.382;2022-12-18T04:37:39;38.68;;;38.64;;
73154;SDS011;61364;52.418;7.382;2022-12-18T04:40:05;38.89;;;38.79;;
73154;SDS011;61364;52.418;7.382;2022-12-18T04:42:32;38.78;;;38.65;;
73154;SDS011;61364;52.418;7.382;2022-12-18T04:44:58;42.17;;;42.17;;
73154;SDS011;61364;52.418;7.382;2022-12-18T04:47:23;41.53;;;41.51;;
73154;SDS011;61364;52.418;7.382;2022-12-18T04:49:49;41.16;;;41.16;;
73154;SDS011;61364;52.418;7.382;2022-12-18T04:52:15;38.45;;;38.42;;
73154;SDS011;61364;52.418;7.382;2022-12-18T04:54:41;42.24;;;42.18;;
73154;SDS011;61364;52.418;7.382;2022-12-18T04:57:07;38.39;;;38.31;;
73154;SDS011;61364;52.418;7.382;2022-12-18T04:59:32;44.11;;;44.11;;
73154;SDS011;61364;52.418;7.382;2022-12-18T05:01:58;47.78;;;47.77;;
73154;SDS011;61364;52.418;7.382;2022-12-18T05:04:23;37.85;;;37.85;;
73154;SDS011;61364;52.418;7.382;2022-12-18T05:06:49;38.73;;;38.67;;
73154;SDS011;61364;52.418;7.382;2022-12-18T05:09:14;38.78;;;38.74;;
73154;SDS011;61364;52.418;7.382;2022-12-18T05:11:40;37.61;;;37.59;;
73154;SDS011;61364;52.418;7.382;2022-12-18T05:14:06;36.55;;;36.55;;
73154;SDS011;61364;52.418;7.382;2022-12-18T05:16:31;34.98;;;34.98;;
73154;SDS011;61364;52.418;7.382;2022-12-18T05:18:57;34.93;;;34.93;;
73154;SDS011;61364;52.418;7.382;2022-12-18T05:21:23;34.51;;;34.50;;
73154;SDS011;61364;52.418;7.382;2022-12-18T05:23:48;33.62;;;33.52;;
73154;SDS011;61364;52.418;7.382;2022-12-18T05:26:15;32.69;;;32.69;;
73154;SDS011;61364;52.418;7.382;2022-12-18T05:28:42;32.28;;;32.27;;
73154;SDS011;61364;52.418;7.382;2022-12-18T05:31:08;30.24;;;30.23;;
73154;SDS011;61364;52.418;7.382;2022-12-18T05:33:34;29.73;;;29.73;;
73154;SDS011;61364;52.418;7.382;2022-12-18T05:36:05;30.09;;;30.09;;
73154;SDS011;61364;52.418;7.382;2022-12-18T05:38:31;29.76;;;29.76;;
73154;SDS011;61364;52.418;7.382;2022-12-18T05:40:58;30.09;;;30.08;;
73154;SDS011;61364;52.418;7.382;2022-12-18T05:43:24;29.93;;;29.81;;
73154;SDS011;61364;52.418;7.382;2022-12-18T05:45:52;29.55;;;29.49;;
73154;SDS011;61364;52.418;7.382;2022-12-18T05:48:18;30.45;;;30.45;;
73154;SDS011;61364;52.418;7.382;2022-12-18T05:50:45;29.16;;;29.16;;
73154;SDS011;61364;52.418;7.382;2022-12-18T05:53:12;28.38;;;28.38;;
73154;SDS011;61364;52.418;7.382;2022-12-18T05:55:39;27.84;;;27.84;;
73154;SDS011;61364;52.418;7.382;2022-12-18T05:58:06;27.80;;;27.77;;
73154;SDS011;61364;52.418;7.382;2022-12-18T06:00:33;27.95;;;27.95;;
73154;SDS011;61364;52.418;7.382;2022-12-18T06:03:00;27.99;;;27.99;;
73154;SDS011;61364;52.418;7.382;2022-12-18T06:05:26;27.41;;;27.41;;
73154;SDS011;61364;52.418;7.382;2022-12-18T06:07:52;27.98;;;27.98;;
73154;SDS011;61364;52.418;7.382;2022-12-18T06:10:18;27.76;;;27.75;;
73154;SDS011;61364;52.418;7.382;2022-12-18T06:12:43;27.77;;;27.77;;
73154;SDS011;61364;52.418;7.382;2022-12-18T06:15:09;27.40;;;27.40;;
73154;SDS011;61364;52.418;7.382;2022-12-18T06:17:36;26.53;;;26.53;;
73154;SDS011;61364;52.418;7.382;2022-12-18T06:20:02;26.63;;;26.63;;
73154;SDS011;61364;52.418;7.382;2022-12-18T06:22:30;25.82;;;25.82;;
73154;SDS011;61364;52.418;7.382;2022-12-18T06:24:55;26.26;;;26.26;;
73154;SDS011;61364;52.418;7.382;2022-12-18T06:27:22;25.97;;;25.96;;
73154;SDS011;61364;52.418;7.382;2022-12-18T06:29:47;25.11;;;25.11;;
73154;SDS011;61364;52.418;7.382;2022-12-18T06:32:13;25.28;;;25.28;;
73154;SDS011;61364;52.418;7.382;2022-12-18T06:34:38;25.12;;;25.09;;
73154;SDS011;61364;52.418;7.382;2022-12-18T06:37:04;24.36;;;24.36;;
73154;SDS011;61364;52.418;7.382;2022-12-18T06:39:29;24.63;;;24.63;;
73154;SDS011;61364;52.418;7.382;2022-12-18T06:41:55;24.39;;;24.39;;
73154;SDS011;61364;52.418;7.382;2022-12-18T06:44:21;23.89;;;23.89;;
73154;SDS011;61364;52.418;7.382;2022-12-18T06:46:47;23.98;;;23.98;;
73154;SDS011;61364;52.418;7.382;2022-12-18T06:49:13;24.76;;;24.76;;
73154;SDS011;61364;52.418;7.382;2022-12-18T06:51:38;24.82;;;24.82;;
73154;SDS011;61364;52.418;7.382;2022-12-18T06:54:04;24.06;;;24.06;;
73154;SDS011;61364;52.418;7.382;2022-12-18T06:56:29;23.69;;;23.69;;
73154;SDS011;61364;52.418;7.382;2022-12-18T06:58:55;27.76;;;27.76;;
73154;SDS011;61364;52.418;7.382;2022-12-18T07:01:21;31.10;;;31.10;;
73154;SDS011;61364;52.418;7.382;2022-12-18T07:03:47;39.29;;;39.29;;
73154;SDS011;61364;52.418;7.382;2022-12-18T07:06:17;29.98;;;29.98;;
73154;SDS011;61364;52.418;7.382;2022-12-18T07:08:43;27.74;;;27.74;;
73154;SDS011;61364;52.418;7.382;2022-12-18T07:11:10;41.94;;;41.93;;
73154;SDS011;61364;52.418;7.382;2022-12-18T07:13:35;46.05;;;45.89;;
73154;SDS011;61364;52.418;7.382;2022-12-18T07:18:55;57.50;;;57.37;;
73154;SDS011;61364;52.418;7.382;2022-12-18T07:21:22;27.80;;;27.80;;
73154;SDS011;61364;52.418;7.382;2022-12-18T07:23:48;23.46;;;23.46;;
73154;SDS011;61364;52.418;7.382;2022-12-18T07:26:14;24.90;;;24.89;;
73154;SDS011;61364;52.418;7.382;2022-12-18T07:28:41;25.93;;;25.93;;
73154;SDS011;61364;52.418;7.382;2022-12-18T07:31:07;26.24;;;26.24;;
73154;SDS011;61364;52.418;7.382;2022-12-18T07:33:34;25.10;;;25.10;;
73154;SDS011;61364;52.418;7.382;2022-12-18T07:36:01;25.52;;;25.52;;
73154;SDS011;61364;52.418;7.382;2022-12-18T07:38:29;25.14;;;25.09;;
73154;SDS011;61364;52.418;7.382;2022-12-18T07:40:54;24.85;;;24.83;;
73154;SDS011;61364;52.418;7.382;2022-12-18T07:43:25;24.62;;;24.62;;
73154;SDS011;61364;52.418;7.382;2022-12-18T07:45:50;25.74;;;25.68;;
73154;SDS011;61364;52.418;7.382;2022-12-18T07:48:16;25.39;;;25.38;;
73154;SDS011;61364;52.418;7.382;2022-12-18T07:50:41;25.58;;;25.55;;
73154;SDS011;61364;52.418;7.382;2022-12-18T07:53:06;26.05;;;26.05;;
73154;SDS011;61364;52.418;7.382;2022-12-18T07:55:32;25.63;;;25.63;;
73154;SDS011;61364;52.418;7.382;2022-12-18T07:58:00;25.35;;;25.26;;
73154;SDS011;61364;52.418;7.382;2022-12-18T08:00:25;25.76;;;25.68;;
73154;SDS011;61364;52.418;7.382;2022-12-18T08:02:51;26.40;;;26.40;;
73154;SDS011;61364;52.418;7.382;2022-12-18T08:05:17;26.54;;;26.54;;
73154;SDS011;61364;52.418;7.382;2022-12-18T08:07:42;26.97;;;26.97;;
73154;SDS011;61364;52.418;7.382;2022-12-18T08:10:08;26.30;;;26.29;;
73154;SDS011;61364;52.418;7.382;2022-12-18T08:12:33;26.16;;;26.16;;
73154;SDS011;61364;52.418;7.382;2022-12-18T08:14:59;25.53;;;25.53;;
73154;SDS011;61364;52.418;7.382;2022-12-18T08:17:25;25.95;;;25.94;;
73154;SDS011;61364;52.418;7.382;2022-12-18T08:19:50;28.59;;;28.59;;
73154;SDS011;61364;52.418;7.382;2022-12-18T08:22:16;27.09;;;27.09;;
73154;SDS011;61364;52.418;7.382;2022-12-18T08:24:41;27.61;;;27.61;;
73154;SDS011;61364;52.418;7.382;2022-12-18T08:27:07;29.57;;;29.57;;
73154;SDS011;61364;52.418;7.382;2022-12-18T08:29:32;27.34;;;27.33;;
73154;SDS011;61364;52.418;7.382;2022-12-18T08:31:59;26.67;;;26.67;;
73154;SDS011;61364;52.418;7.382;2022-12-18T08:34:25;26.30;;;26.30;;
73154;SDS011;61364;52.418;7.382;2022-12-18T08:36:50;25.69;;;25.69;;
73154;SDS011;61364;52.418;7.382;2022-12-18T08:39:16;27.39;;;27.39;;
73154;SDS011;61364;52.418;7.382;2022-12-18T08:41:41;26.37;;;26.37;;
73154;SDS011;61364;52.418;7.382;2022-12-18T08:44:07;25.41;;;25.41;;
73154;SDS011;61364;52.418;7.382;2022-12-18T08:46:52;26.65;;;26.64;;
73154;SDS011;61364;52.418;7.382;2022-12-18T08:49:17;26.52;;;26.46;;
73154;SDS011;61364;52.418;7.382;2022-12-18T08:51:43;26.82;;;26.82;;
73154;SDS011;61364;52.418;7.382;2022-12-18T08:54:10;25.91;;;25.91;;
73154;SDS011;61364;52.418;7.382;2022-12-18T08:56:36;25.40;;;25.39;;
73154;SDS011;61364;52.418;7.382;2022-12-18T08:59:01;24.32;;;24.32;;
73154;SDS011;61364;52.418;7.382;2022-12-18T09:01:27;24.73;;;24.73;;
73154;SDS011;61364;52.418;7.382;2022-12-18T09:03:53;24.95;;;24.94;;
73154;SDS011;61364;52.418;7.382;2022-12-18T09:06:21;23.73;;;23.72;;
73154;SDS011;61364;52.418;7.382;2022-12-18T09:08:47;22.80;;;22.78;;
73154;SDS011;61364;52.418;7.382;2022-12-18T09:14:00;22.44;;;22.44;;
73154;SDS011;61364;52.418;7.382;2022-12-18T09:16:26;22.48;;;22.48;;
73154;SDS011;61364;52.418;7.382;2022-12-18T09:22:10;22.01;;;22.01;;
73154;SDS011;61364;52.418;7.382;2022-12-18T09:24:36;20.51;;;20.51;;
73154;SDS011;61364;52.418;7.382;2022-12-18T09:27:04;20.60;;;20.60;;
73154;SDS011;61364;52.418;7.382;2022-12-18T09:29:29;20.50;;;20.41;;
73154;SDS011;61364;52.418;7.382;2022-12-18T09:31:55;19.99;;;19.99;;
73154;SDS011;61364;52.418;7.382;2022-12-18T09:37:08;19.55;;;19.55;;
73154;SDS011;61364;52.418;7.382;2022-12-18T09:42:09;19.22;;;19.22;;
73154;SDS011;61364;52.418;7.382;2022-12-18T09:44:52;18.41;;;18.41;;
73154;SDS011;61364;52.418;7.382;2022-12-18T09:47:53;18.92;;;18.80;;
73154;SDS011;61364;52.418;7.382;2022-12-18T09:50:25;18.15;;;18.15;;
73154;SDS011;61364;52.418;7.382;2022-12-18T09:55:50;18.02;;;18.02;;
73154;SDS011;61364;52.418;7.382;2022-12-18T09:59:02;17.62;;;17.62;;
73154;SDS011;61364;52.418;7.382;2022-12-18T10:01:10;17.06;;;17.06;;
73154;SDS011;61364;52.418;7.382;2022-12-18T10:03:43;16.53;;;16.52;;
73154;SDS011;61364;52.418;7.382;2022-12-18T10:06:13;15.75;;;15.75;;
73154;SDS011;61364;52.418;7.382;2022-12-18T10:08:43;15.63;;;15.63;;
73154;SDS011;61364;52.418;7.382;2022-12-18T10:13:41;17.22;;;17.22;;
73154;SDS011;61364;52.418;7.382;2022-12-18T10:19:35;16.77;;;16.77;;
73154;SDS011;61364;52.418;7.382;2022-12-18T10:27:17;17.90;;;17.90;;
73154;SDS011;61364;52.418;7.382;2022-12-18T10:29:46;17.93;;;17.93;;
73154;SDS011;61364;52.418;7.382;2022-12-18T10:32:19;17.53;;;17.53;;
73154;SDS011;61364;52.418;7.382;2022-12-18T10:34:49;17.49;;;17.49;;
73154;SDS011;61364;52.418;7.382;2022-12-18T10:37:17;17.04;;;17.04;;
73154;SDS011;61364;52.418;7.382;2022-12-18T10:39:44;17.09;;;17.09;;
73154;SDS011;61364;52.418;7.382;2022-12-18T10:42:19;17.44;;;17.44;;
73154;SDS011;61364;52.418;7.382;2022-12-18T10:44:45;17.79;;;17.78;;
73154;SDS011;61364;52.418;7.382;2022-12-18T10:47:14;18.41;;;18.41;;
73154;SDS011;61364;52.418;7.382;2022-12-18T10:52:26;18.14;;;18.14;;
73154;SDS011;61364;52.418;7.382;2022-12-18T11:03:37;19.95;;;19.95;;
73154;SDS011;61364;52.418;7.382;2022-12-18T11:11:37;20.16;;;20.16;;
73154;SDS011;61364;52.418;7.382;2022-12-18T11:14:06;19.99;;;19.99;;
73154;SDS011;61364;52.418;7.382;2022-12-18T11:16:52;20.01;;;20.00;;
73154;SDS011;61364;52.418;7.382;2022-12-18T11:19:35;19.91;;;19.91;;
73154;SDS011;61364;52.418;7.382;2022-12-18T11:22:23;19.84;;;19.84;;
73154;SDS011;61364;52.418;7.382;2022-12-18T11:27:21;19.95;;;19.95;;
73154;SDS011;61364;52.418;7.382;2022-12-18T11:29:47;19.80;;;19.80;;
73154;SDS011;61364;52.418;7.382;2022-12-18T11:34:41;18.94;;;18.94;;
73154;SDS011;61364;52.418;7.382;2022-12-18T11:37:19;20.08;;;20.08;;
73154;SDS011;61364;52.418;7.382;2022-12-18T11:39:55;19.66;;;19.66;;
73154;SDS011;61364;52.418;7.382;2022-12-18T11:42:27;19.40;;;19.40;;
73154;SDS011;61364;52.418;7.382;2022-12-18T11:45:21;20.12;;;20.06;;
73154;SDS011;61364;52.418;7.382;2022-12-18T11:50:24;20.29;;;20.29;;
73154;SDS011;61364;52.418;7.382;2022-12-18T11:52:51;19.99;;;19.99;;
73154;SDS011;61364;52.418;7.382;2022-12-18T11:55:30;20.38;;;20.36;;
73154;SDS011;61364;52.418;7.382;2022-12-18T12:09:16;19.81;;;19.81;;
73154;SDS011;61364;52.418;7.382;2022-12-18T12:30:26;20.28;;;20.27;;
73154;SDS011;61364;52.418;7.382;2022-12-18T12:36:16;20.44;;;20.44;;
73154;SDS011;61364;52.418;7.382;2022-12-18T12:39:11;21.12;;;21.12;;
73154;SDS011;61364;52.418;7.382;2022-12-18T12:41:40;20.17;;;20.16;;
73154;SDS011;61364;52.418;7.382;2022-12-18T12:47:14;21.03;;;21.03;;
73154;SDS011;61364;52.418;7.382;2022-12-18T12:49:49;20.94;;;20.94;;
73154;SDS011;61364;52.418;7.382;2022-12-18T12:52:27;20.96;;;20.96;;
73154;SDS011;61364;52.418;7.382;2022-12-18T12:55:00;20.92;;;20.92;;
73154;SDS011;61364;52.418;7.382;2022-12-18T12:57:35;20.44;;;20.44;;
73154;SDS011;61364;52.418;7.382;2022-12-18T13:00:17;21.03;;;21.03;;
73154;SDS011;61364;52.418;7.382;2022-12-18T13:02:52;21.03;;;21.03;;
73154;SDS011;61364;52.418;7.382;2022-12-18T13:08:28;21.12;;;21.12;;
73154;SDS011;61364;52.418;7.382;2022-12-18T13:10:55;21.42;;;21.42;;
73154;SDS011;61364;52.418;7.382;2022-12-18T13:16:44;21.36;;;21.36;;
73154;SDS011;61364;52.418;7.382;2022-12-18T13:19:18;21.26;;;21.26;;
73154;SDS011;61364;52.418;7.382;2022-12-18T13:21:56;21.09;;;21.09;;
73154;SDS011;61364;52.418;7.382;2022-12-18T13:24:40;21.30;;;21.30;;
73154;SDS011;61364;52.418;7.382;2022-12-18T13:27:39;21.75;;;21.75;;
73154;SDS011;61364;52.418;7.382;2022-12-18T13:42:31;22.75;;;22.75;;
73154;SDS011;61364;52.418;7.382;2022-12-18T13:47:34;23.90;;;23.90;;
73154;SDS011;61364;52.418;7.382;2022-12-18T13:52:38;23.63;;;23.63;;
73154;SDS011;61364;52.418;7.382;2022-12-18T13:55:16;23.42;;;23.42;;
73154;SDS011;61364;52.418;7.382;2022-12-18T13:57:44;25.06;;;25.06;;
73154;SDS011;61364;52.418;7.382;2022-12-18T14:06:15;25.01;;;25.01;;
73154;SDS011;61364;52.418;7.382;2022-12-18T14:11:40;25.76;;;25.76;;
73154;SDS011;61364;52.418;7.382;2022-12-18T14:14:13;25.23;;;25.23;;
73154;SDS011;61364;52.418;7.382;2022-12-18T14:16:40;25.40;;;25.40;;
73154;SDS011;61364;52.418;7.382;2022-12-18T14:19:08;25.92;;;25.85;;
73154;SDS011;61364;52.418;7.382;2022-12-18T14:21:37;25.90;;;25.90;;
73154;SDS011;61364;52.418;7.382;2022-12-18T14:29:54;25.81;;;25.81;;
73154;SDS011;61364;52.418;7.382;2022-12-18T14:34:56;25.32;;;25.32;;
73154;SDS011;61364;52.418;7.382;2022-12-18T14:37:25;25.10;;;25.10;;
73154;SDS011;61364;52.418;7.382;2022-12-18T14:42:50;24.65;;;24.65;;
73154;SDS011;61364;52.418;7.382;2022-12-18T14:51:23;23.92;;;23.92;;
73154;SDS011;61364;52.418;7.382;2022-12-18T14:56:46;23.86;;;23.86;;
73154;SDS011;61364;52.418;7.382;2022-12-18T14:59:15;23.74;;;23.74;;
73154;SDS011;61364;52.418;7.382;2022-12-18T15:04:45;23.39;;;23.39;;
73154;SDS011;61364;52.418;7.382;2022-12-18T15:14:58;22.79;;;22.79;;
73154;SDS011;61364;52.418;7.382;2022-12-18T15:17:24;22.61;;;22.61;;
73154;SDS011;61364;52.418;7.382;2022-12-18T15:22:41;22.03;;;22.01;;
73154;SDS011;61364;52.418;7.382;2022-12-18T15:25:21;21.48;;;21.43;;
73154;SDS011;61364;52.418;7.382;2022-12-18T15:27:54;20.63;;;20.63;;
73154;SDS011;61364;52.418;7.382;2022-12-18T15:36:08;19.80;;;19.79;;
73154;SDS011;61364;52.418;7.382;2022-12-18T15:38:35;19.66;;;19.61;;
73154;SDS011;61364;52.418;7.382;2022-12-18T15:41:00;19.83;;;19.83;;
73154;SDS011;61364;52.418;7.382;2022-12-18T15:43:28;19.66;;;19.66;;
73154;SDS011;61364;52.418;7.382;2022-12-18T15:46:08;19.57;;;19.57;;
73154;SDS011;61364;52.418;7.382;2022-12-18T15:51:40;19.11;;;19.11;;
73154;SDS011;61364;52.418;7.382;2022-12-18T15:54:06;19.05;;;19.05;;
73154;SDS011;61364;52.418;7.382;2022-12-18T16:05:15;18.14;;;18.14;;
73154;SDS011;61364;52.418;7.382;2022-12-18T16:07:44;17.99;;;17.99;;
73154;SDS011;61364;52.418;7.382;2022-12-18T16:10:10;18.16;;;18.16;;
73154;SDS011;61364;52.418;7.382;2022-12-18T16:12:36;18.29;;;18.29;;
73154;SDS011;61364;52.418;7.382;2022-12-18T16:17:32;17.47;;;17.47;;
73154;SDS011;61364;52.418;7.382;2022-12-18T16:19:57;17.18;;;17.18;;
73154;SDS011;61364;52.418;7.382;2022-12-18T16:25:27;16.89;;;16.89;;
73154;SDS011;61364;52.418;7.382;2022-12-18T16:30:34;16.83;;;16.83;;
73154;SDS011;61364;52.418;7.382;2022-12-18T16:33:00;16.84;;;16.84;;
73154;SDS011;61364;52.418;7.382;2022-12-18T16:37:59;16.21;;;16.21;;
73154;SDS011;61364;52.418;7.382;2022-12-18T16:40:25;16.38;;;16.38;;
73154;SDS011;61364;52.418;7.382;2022-12-18T16:42:50;16.11;;;16.11;;
73154;SDS011;61364;52.418;7.382;2022-12-18T16:45:18;16.83;;;16.83;;
73154;SDS011;61364;52.418;7.382;2022-12-18T16:47:44;16.09;;;16.09;;
73154;SDS011;61364;52.418;7.382;2022-12-18T16:50:10;16.71;;;16.65;;
73154;SDS011;61364;52.418;7.382;2022-12-18T16:52:36;15.92;;;15.92;;
73154;SDS011;61364;52.418;7.382;2022-12-18T16:55:02;15.92;;;15.92;;
73154;SDS011;61364;52.418;7.382;2022-12-18T17:00:31;16.38;;;16.38;;
73154;SDS011;61364;52.418;7.382;2022-12-18T17:02:56;16.15;;;16.15;;
73154;SDS011;61364;52.418;7.382;2022-12-18T17:05:23;17.30;;;17.30;;
73154;SDS011;61364;52.418;7.382;2022-12-18T17:07:49;17.13;;;17.13;;
73154;SDS011;61364;52.418;7.382;2022-12-18T17:10:15;16.88;;;16.88;;
73154;SDS011;61364;52.418;7.382;2022-12-18T17:12:40;16.62;;;16.62;;
73154;SDS011;61364;52.418;7.382;2022-12-18T17:15:07;16.54;;;16.54;;
73154;SDS011;61364;52.418;7.382;2022-12-18T17:17:33;16.38;;;16.38;;
73154;SDS011;61364;52.418;7.382;2022-12-18T17:20:00;16.62;;;16.62;;
73154;SDS011;61364;52.418;7.382;2022-12-18T17:22:26;16.55;;;16.55;;
73154;SDS011;61364;52.418;7.382;2022-12-18T17:24:52;16.79;;;16.79;;
73154;SDS011;61364;52.418;7.382;2022-12-18T17:27:17;16.09;;;16.09;;
73154;SDS011;61364;52.418;7.382;2022-12-18T17:29:43;16.20;;;16.20;;
73154;SDS011;61364;52.418;7.382;2022-12-18T17:32:15;15.83;;;15.83;;
73154;SDS011;61364;52.418;7.382;2022-12-18T17:34:41;16.19;;;16.19;;
73154;SDS011;61364;52.418;7.382;2022-12-18T17:37:06;16.79;;;16.79;;
73154;SDS011;61364;52.418;7.382;2022-12-18T17:42:21;16.79;;;16.79;;
73154;SDS011;61364;52.418;7.382;2022-12-18T17:44:47;16.16;;;16.16;;
73154;SDS011;61364;52.418;7.382;2022-12-18T17:47:12;16.63;;;16.63;;
73154;SDS011;61364;52.418;7.382;2022-12-18T17:52:11;16.05;;;16.05;;
73154;SDS011;61364;52.418;7.382;2022-12-18T17:54:38;16.26;;;16.26;;
73154;SDS011;61364;52.418;7.382;2022-12-18T18:00:05;15.42;;;15.42;;
73154;SDS011;61364;52.418;7.382;2022-12-18T18:05:14;15.88;;;15.88;;
73154;SDS011;61364;52.418;7.382;2022-12-18T18:07:39;15.33;;;15.33;;
73154;SDS011;61364;52.418;7.382;2022-12-18T18:10:05;15.10;;;15.10;;
73154;SDS011;61364;52.418;7.382;2022-12-18T18:12:31;15.41;;;15.41;;
73154;SDS011;61364;52.418;7.382;2022-12-18T18:15:15;14.52;;;14.52;;
73154;SDS011;61364;52.418;7.382;2022-12-18T18:17:41;14.40;;;14.40;;
73154;SDS011;61364;52.418;7.382;2022-12-18T18:20:07;14.26;;;14.26;;
73154;SDS011;61364;52.418;7.382;2022-12-18T18:22:33;13.86;;;13.86;;
73154;SDS011;61364;52.418;7.382;2022-12-18T18:24:58;13.05;;;13.05;;
73154;SDS011;61364;52.418;7.382;2022-12-18T18:27:24;12.34;;;12.34;;
73154;SDS011;61364;52.418;7.382;2022-12-18T18:29:50;12.48;;;12.48;;
73154;SDS011;61364;52.418;7.382;2022-12-18T18:35:06;12.23;;;12.23;;